sensor_id;sensor_type;location;lat;lon;timestamp;P1;durP1;ratioP1;P2;durP2;ratioP2
10269;SDS011;70826;50.930;5.334;2023-06-26T00:02:05;5.70;;;5.20;;
10269;SDS011;70826;50.930;5.334;2023-06-26T00:04:33;5.47;;;4.95;;
10269;SDS011;70826;50.930;5.334;2023-06-26T00:07:03;5.97;;;5.47;;
10269;SDS011;70826;50.930;5.334;2023-06-26T00:09:31;6.15;;;5.65;;
10269;SDS011;70826;50.930;5.334;2023-06-26T00:12:00;5.78;;;5.28;;
10269;SDS011;70826;50.930;5.334;2023-06-26T00:14:26;6.22;;;5.63;;
10269;SDS011;70826;50.930;5.334;2023-06-26T00:16:52;6.78;;;5.70;;
10269;SDS011;70826;50.930;5.334;2023-06-26T00:19:20;5.47;;;4.95;;
10269;SDS011;70826;50.930;5.334;2023-06-26T00:21:49;6.43;;;5.82;;
10269;SDS011;70826;50.930;5.334;2023-06-26T00:24:17;6.68;;;5.97;;
10269;SDS011;70826;50.930;5.334;2023-06-26T00:26:45;6.50;;;5.90;;
10269;SDS011;70826;50.930;5.334;2023-06-26T00:29:12;6.30;;;5.70;;
10269;SDS011;70826;50.930;5.334;2023-06-26T00:31:37;6.10;;;5.57;;
10269;SDS011;70826;50.930;5.334;2023-06-26T00:34:05;6.15;;;5.43;;
10269;SDS011;70826;50.930;5.334;2023-06-26T00:36:31;5.78;;;5.22;;
10269;SDS011;70826;50.930;5.334;2023-06-26T00:38:57;6.15;;;5.55;;
10269;SDS011;70826;50.930;5.334;2023-06-26T00:41:23;6.18;;;5.65;;
10269;SDS011;70826;50.930;5.334;2023-06-26T00:43:49;5.85;;;5.35;;
10269;SDS011;70826;50.930;5.334;2023-06-26T00:46:17;6.03;;;5.53;;
10269;SDS011;70826;50.930;5.334;2023-06-26T00:48:46;5.88;;;5.28;;
10269;SDS011;70826;50.930;5.334;2023-06-26T00:51:16;6.10;;;5.50;;
10269;SDS011;70826;50.930;5.334;2023-06-26T00:53:45;6.13;;;5.45;;
10269;SDS011;70826;50.930;5.334;2023-06-26T00:56:14;6.13;;;5.53;;
10269;SDS011;70826;50.930;5.334;2023-06-26T00:58:45;5.93;;;5.43;;
10269;SDS011;70826;50.930;5.334;2023-06-26T01:01:13;5.95;;;5.35;;
10269;SDS011;70826;50.930;5.334;2023-06-26T01:03:42;5.70;;;5.20;;
10269;SDS011;70826;50.930;5.334;2023-06-26T01:06:11;5.68;;;5.18;;
10269;SDS011;70826;50.930;5.334;2023-06-26T01:08:39;6.07;;;5.35;;
10269;SDS011;70826;50.930;5.334;2023-06-26T01:11:07;6.18;;;5.57;;
10269;SDS011;70826;50.930;5.334;2023-06-26T01:13:33;5.80;;;5.30;;
10269;SDS011;70826;50.930;5.334;2023-06-26T01:16:00;5.57;;;5.15;;
10269;SDS011;70826;50.930;5.334;2023-06-26T01:18:28;5.72;;;5.20;;
10269;SDS011;70826;50.930;5.334;2023-06-26T01:20:55;6.28;;;5.25;;
10269;SDS011;70826;50.930;5.334;2023-06-26T01:23:37;5.78;;;5.28;;
10269;SDS011;70826;50.930;5.334;2023-06-26T01:26:19;5.78;;;5.28;;
10269;SDS011;70826;50.930;5.334;2023-06-26T01:28:51;5.45;;;4.95;;
10269;SDS011;70826;50.930;5.334;2023-06-26T01:31:20;6.72;;;5.50;;
10269;SDS011;70826;50.930;5.334;2023-06-26T01:33:49;5.75;;;5.20;;
10269;SDS011;70826;50.930;5.334;2023-06-26T01:36:19;6.55;;;5.53;;
10269;SDS011;70826;50.930;5.334;2023-06-26T01:38:47;5.50;;;5.00;;
10269;SDS011;70826;50.930;5.334;2023-06-26T01:41:13;5.97;;;5.40;;
10269;SDS011;70826;50.930;5.334;2023-06-26T01:46:16;5.57;;;5.07;;
10269;SDS011;70826;50.930;5.334;2023-06-26T01:51:32;6.47;;;5.15;;
10269;SDS011;70826;50.930;5.334;2023-06-26T01:54:10;7.43;;;5.03;;
10269;SDS011;70826;50.930;5.334;2023-06-26T01:56:49;5.50;;;5.00;;
10269;SDS011;70826;50.930;5.334;2023-06-26T01:59:18;5.55;;;5.03;;
10269;SDS011;70826;50.930;5.334;2023-06-26T02:01:48;5.60;;;5.10;;
10269;SDS011;70826;50.930;5.334;2023-06-26T02:04:16;5.03;;;4.63;;
10269;SDS011;70826;50.930;5.334;2023-06-26T02:06:49;6.18;;;5.60;;
10269;SDS011;70826;50.930;5.334;2023-06-26T02:09:19;5.68;;;5.10;;
10269;SDS011;70826;50.930;5.334;2023-06-26T02:11:45;5.53;;;4.97;;
10269;SDS011;70826;50.930;5.334;2023-06-26T02:14:13;5.78;;;5.15;;
10269;SDS011;70826;50.930;5.334;2023-06-26T02:16:38;5.60;;;5.07;;
10269;SDS011;70826;50.930;5.334;2023-06-26T02:19:04;6.05;;;5.00;;
10269;SDS011;70826;50.930;5.334;2023-06-26T02:21:30;5.45;;;5.05;;
10269;SDS011;70826;50.930;5.334;2023-06-26T02:23:57;5.60;;;5.10;;
10269;SDS011;70826;50.930;5.334;2023-06-26T02:26:25;5.50;;;5.00;;
10269;SDS011;70826;50.930;5.334;2023-06-26T02:28:53;5.75;;;5.18;;
10269;SDS011;70826;50.930;5.334;2023-06-26T02:31:19;6.45;;;4.90;;
10269;SDS011;70826;50.930;5.334;2023-06-26T02:33:45;5.43;;;4.90;;
10269;SDS011;70826;50.930;5.334;2023-06-26T02:36:13;5.47;;;4.97;;
10269;SDS011;70826;50.930;5.334;2023-06-26T02:38:39;5.00;;;4.60;;
10269;SDS011;70826;50.930;5.334;2023-06-26T02:41:05;5.43;;;4.93;;
10269;SDS011;70826;50.930;5.334;2023-06-26T02:43:31;5.55;;;5.05;;
10269;SDS011;70826;50.930;5.334;2023-06-26T02:45:57;5.40;;;4.93;;
10269;SDS011;70826;50.930;5.334;2023-06-26T02:48:22;5.30;;;4.80;;
10269;SDS011;70826;50.930;5.334;2023-06-26T02:50:48;5.20;;;4.78;;
10269;SDS011;70826;50.930;5.334;2023-06-26T02:53:17;5.10;;;4.70;;
10269;SDS011;70826;50.930;5.334;2023-06-26T02:55:45;5.85;;;4.90;;
10269;SDS011;70826;50.930;5.334;2023-06-26T02:58:15;4.93;;;4.43;;
10269;SDS011;70826;50.930;5.334;2023-06-26T03:00:40;5.15;;;4.65;;
10269;SDS011;70826;50.930;5.334;2023-06-26T03:03:09;4.93;;;4.53;;
10269;SDS011;70826;50.930;5.334;2023-06-26T03:05:39;4.82;;;4.43;;
10269;SDS011;70826;50.930;5.334;2023-06-26T03:08:05;5.05;;;4.55;;
10269;SDS011;70826;50.930;5.334;2023-06-26T03:10:33;5.30;;;4.80;;
10269;SDS011;70826;50.930;5.334;2023-06-26T03:13:01;4.70;;;4.30;;
10269;SDS011;70826;50.930;5.334;2023-06-26T03:15:29;5.05;;;4.57;;
10269;SDS011;70826;50.930;5.334;2023-06-26T03:17:55;5.10;;;4.60;;
10269;SDS011;70826;50.930;5.334;2023-06-26T03:20:26;4.93;;;4.53;;
10269;SDS011;70826;50.930;5.334;2023-06-26T03:22:54;4.82;;;4.38;;
10269;SDS011;70826;50.930;5.334;2023-06-26T03:25:20;4.80;;;4.40;;
10269;SDS011;70826;50.930;5.334;2023-06-26T03:27:45;4.60;;;4.20;;
10269;SDS011;70826;50.930;5.334;2023-06-26T03:30:11;5.10;;;4.70;;
10269;SDS011;70826;50.930;5.334;2023-06-26T03:32:40;4.63;;;4.22;;
10269;SDS011;70826;50.930;5.334;2023-06-26T03:35:06;5.07;;;4.57;;
10269;SDS011;70826;50.930;5.334;2023-06-26T03:37:34;4.88;;;4.40;;
10269;SDS011;70826;50.930;5.334;2023-06-26T03:40:00;5.00;;;4.50;;
10269;SDS011;70826;50.930;5.334;2023-06-26T03:42:26;4.60;;;4.20;;
10269;SDS011;70826;50.930;5.334;2023-06-26T03:44:55;5.00;;;4.30;;
10269;SDS011;70826;50.930;5.334;2023-06-26T03:47:20;4.68;;;4.28;;
10269;SDS011;70826;50.930;5.334;2023-06-26T03:49:51;4.60;;;4.10;;
10269;SDS011;70826;50.930;5.334;2023-06-26T03:52:17;5.05;;;4.55;;
10269;SDS011;70826;50.930;5.334;2023-06-26T03:54:43;5.15;;;4.10;;
10269;SDS011;70826;50.930;5.334;2023-06-26T03:57:14;4.75;;;4.10;;
10269;SDS011;70826;50.930;5.334;2023-06-26T03:59:47;4.32;;;3.97;;
10269;SDS011;70826;50.930;5.334;2023-06-26T04:02:13;4.93;;;4.13;;
10269;SDS011;70826;50.930;5.334;2023-06-26T04:04:39;4.75;;;4.35;;
10269;SDS011;70826;50.930;5.334;2023-06-26T04:07:05;4.82;;;4.18;;
10269;SDS011;70826;50.930;5.334;2023-06-26T04:09:31;4.22;;;3.83;;
10269;SDS011;70826;50.930;5.334;2023-06-26T04:11:59;5.13;;;4.13;;
10269;SDS011;70826;50.930;5.334;2023-06-26T04:14:25;4.82;;;4.43;;
10269;SDS011;70826;50.930;5.334;2023-06-26T04:16:54;4.85;;;4.35;;
10269;SDS011;70826;50.930;5.334;2023-06-26T04:19:23;5.20;;;4.20;;
10269;SDS011;70826;50.930;5.334;2023-06-26T04:21:49;4.57;;;4.18;;
10269;SDS011;70826;50.930;5.334;2023-06-26T04:24:17;4.35;;;3.95;;
10269;SDS011;70826;50.930;5.334;2023-06-26T04:26:43;5.63;;;4.32;;
10269;SDS011;70826;50.930;5.334;2023-06-26T04:29:10;4.00;;;3.60;;
10269;SDS011;70826;50.930;5.334;2023-06-26T04:31:38;4.35;;;3.95;;
10269;SDS011;70826;50.930;5.334;2023-06-26T04:34:06;5.35;;;4.55;;
10269;SDS011;70826;50.930;5.334;2023-06-26T04:36:33;4.38;;;3.90;;
10269;SDS011;70826;50.930;5.334;2023-06-26T04:39:03;4.30;;;3.90;;
10269;SDS011;70826;50.930;5.334;2023-06-26T04:41:32;4.20;;;3.80;;
10269;SDS011;70826;50.930;5.334;2023-06-26T04:43:58;4.70;;;4.20;;
10269;SDS011;70826;50.930;5.334;2023-06-26T04:46:24;4.20;;;3.80;;
10269;SDS011;70826;50.930;5.334;2023-06-26T04:48:49;4.40;;;4.00;;
10269;SDS011;70826;50.930;5.334;2023-06-26T04:51:18;4.30;;;3.90;;
10269;SDS011;70826;50.930;5.334;2023-06-26T04:53:48;4.45;;;4.03;;
10269;SDS011;70826;50.930;5.334;2023-06-26T04:56:14;4.47;;;3.90;;
10269;SDS011;70826;50.930;5.334;2023-06-26T04:58:44;5.03;;;3.63;;
10269;SDS011;70826;50.930;5.334;2023-06-26T05:01:15;4.78;;;3.80;;
10269;SDS011;70826;50.930;5.334;2023-06-26T05:03:41;6.10;;;3.97;;
10269;SDS011;70826;50.930;5.334;2023-06-26T05:06:10;4.32;;;3.92;;
10269;SDS011;70826;50.930;5.334;2023-06-26T05:08:38;4.20;;;3.80;;
10269;SDS011;70826;50.930;5.334;2023-06-26T05:11:04;4.35;;;3.90;;
10269;SDS011;70826;50.930;5.334;2023-06-26T05:13:33;3.85;;;3.45;;
10269;SDS011;70826;50.930;5.334;2023-06-26T05:15:59;4.38;;;3.80;;
10269;SDS011;70826;50.930;5.334;2023-06-26T05:18:25;5.38;;;3.97;;
10269;SDS011;70826;50.930;5.334;2023-06-26T05:20:53;4.10;;;3.70;;
10269;SDS011;70826;50.930;5.334;2023-06-26T05:23:20;4.10;;;3.70;;
10269;SDS011;70826;50.930;5.334;2023-06-26T05:25:46;4.97;;;3.80;;
10269;SDS011;70826;50.930;5.334;2023-06-26T05:28:12;6.68;;;4.05;;
10269;SDS011;70826;50.930;5.334;2023-06-26T05:30:41;4.30;;;3.78;;
10269;SDS011;70826;50.930;5.334;2023-06-26T05:33:08;4.90;;;3.60;;
10269;SDS011;70826;50.930;5.334;2023-06-26T05:35:39;4.63;;;3.80;;
10269;SDS011;70826;50.930;5.334;2023-06-26T05:38:07;4.97;;;3.67;;
10269;SDS011;70826;50.930;5.334;2023-06-26T05:40:36;3.88;;;3.50;;
10269;SDS011;70826;50.930;5.334;2023-06-26T05:43:02;4.38;;;3.75;;
10269;SDS011;70826;50.930;5.334;2023-06-26T05:45:32;3.90;;;3.50;;
10269;SDS011;70826;50.930;5.334;2023-06-26T05:48:00;4.05;;;3.63;;
10269;SDS011;70826;50.930;5.334;2023-06-26T05:50:27;5.28;;;3.63;;
10269;SDS011;70826;50.930;5.334;2023-06-26T05:52:56;4.00;;;3.60;;
10269;SDS011;70826;50.930;5.334;2023-06-26T05:55:30;5.00;;;3.80;;
10269;SDS011;70826;50.930;5.334;2023-06-26T05:57:59;4.90;;;3.38;;
10269;SDS011;70826;50.930;5.334;2023-06-26T06:00:32;4.65;;;3.63;;
10269;SDS011;70826;50.930;5.334;2023-06-26T06:02:58;5.82;;;3.80;;
10269;SDS011;70826;50.930;5.334;2023-06-26T06:05:29;3.83;;;3.38;;
10269;SDS011;70826;50.930;5.334;2023-06-26T06:07:59;4.95;;;3.50;;
10269;SDS011;70826;50.930;5.334;2023-06-26T06:10:30;4.25;;;3.63;;
10269;SDS011;70826;50.930;5.334;2023-06-26T06:13:00;7.25;;;3.67;;
10269;SDS011;70826;50.930;5.334;2023-06-26T06:15:26;4.28;;;3.28;;
10269;SDS011;70826;50.930;5.334;2023-06-26T06:17:53;5.82;;;3.42;;
10269;SDS011;70826;50.930;5.334;2023-06-26T06:20:21;4.38;;;3.20;;
10269;SDS011;70826;50.930;5.334;2023-06-26T06:22:49;5.72;;;3.53;;
10269;SDS011;70826;50.930;5.334;2023-06-26T06:25:17;5.30;;;3.45;;
10269;SDS011;70826;50.930;5.334;2023-06-26T06:27:46;5.72;;;3.33;;
10269;SDS011;70826;50.930;5.334;2023-06-26T06:30:12;4.30;;;3.17;;
10269;SDS011;70826;50.930;5.334;2023-06-26T06:32:40;5.68;;;3.53;;
10269;SDS011;70826;50.930;5.334;2023-06-26T06:35:09;6.20;;;3.50;;
10269;SDS011;70826;50.930;5.334;2023-06-26T06:37:42;6.00;;;3.30;;
10269;SDS011;70826;50.930;5.334;2023-06-26T06:40:13;6.00;;;3.30;;
10269;SDS011;70826;50.930;5.334;2023-06-26T06:42:39;3.63;;;3.00;;
10269;SDS011;70826;50.930;5.334;2023-06-26T06:45:04;4.22;;;3.17;;
10269;SDS011;70826;50.930;5.334;2023-06-26T06:47:33;4.35;;;3.20;;
10269;SDS011;70826;50.930;5.334;2023-06-26T06:50:02;4.43;;;3.33;;
10269;SDS011;70826;50.930;5.334;2023-06-26T06:52:34;4.57;;;3.10;;
10269;SDS011;70826;50.930;5.334;2023-06-26T06:55:06;5.55;;;3.20;;
10269;SDS011;70826;50.930;5.334;2023-06-26T06:57:36;4.68;;;3.00;;
10269;SDS011;70826;50.930;5.334;2023-06-26T07:00:08;4.82;;;3.42;;
10269;SDS011;70826;50.930;5.334;2023-06-26T07:02:37;8.00;;;3.33;;
10269;SDS011;70826;50.930;5.334;2023-06-26T07:05:07;5.30;;;3.40;;
10269;SDS011;70826;50.930;5.334;2023-06-26T07:07:34;4.43;;;3.10;;
10269;SDS011;70826;50.930;5.334;2023-06-26T07:10:03;5.18;;;3.45;;
10269;SDS011;70826;50.930;5.334;2023-06-26T07:12:37;8.20;;;3.20;;
10269;SDS011;70826;50.930;5.334;2023-06-26T07:15:05;5.35;;;3.00;;
10269;SDS011;70826;50.930;5.334;2023-06-26T07:17:34;15.30;;;3.50;;
10269;SDS011;70826;50.930;5.334;2023-06-26T07:20:01;10.98;;;3.08;;
10269;SDS011;70826;50.930;5.334;2023-06-26T07:22:31;7.53;;;3.20;;
10269;SDS011;70826;50.930;5.334;2023-06-26T07:24:57;7.75;;;2.60;;
10269;SDS011;70826;50.930;5.334;2023-06-26T07:27:25;8.70;;;2.90;;
10269;SDS011;70826;50.930;5.334;2023-06-26T07:29:51;8.25;;;3.00;;
10269;SDS011;70826;50.930;5.334;2023-06-26T07:32:21;9.10;;;3.00;;
10269;SDS011;70826;50.930;5.334;2023-06-26T07:34:49;14.15;;;2.97;;
10269;SDS011;70826;50.930;5.334;2023-06-26T07:37:15;8.05;;;2.70;;
10269;SDS011;70826;50.930;5.334;2023-06-26T07:39:46;6.95;;;2.70;;
10269;SDS011;70826;50.930;5.334;2023-06-26T07:42:12;4.47;;;2.65;;
10269;SDS011;70826;50.930;5.334;2023-06-26T07:44:38;10.43;;;2.80;;
10269;SDS011;70826;50.930;5.334;2023-06-26T07:47:06;12.05;;;2.90;;
10269;SDS011;70826;50.930;5.334;2023-06-26T07:49:34;5.10;;;2.42;;
10269;SDS011;70826;50.930;5.334;2023-06-26T07:52:00;14.50;;;2.80;;
10269;SDS011;70826;50.930;5.334;2023-06-26T07:54:25;13.02;;;2.83;;
10269;SDS011;70826;50.930;5.334;2023-06-26T07:56:58;10.50;;;2.70;;
10269;SDS011;70826;50.930;5.334;2023-06-26T07:59:26;9.10;;;2.50;;
10269;SDS011;70826;50.930;5.334;2023-06-26T08:01:54;5.47;;;2.47;;
10269;SDS011;70826;50.930;5.334;2023-06-26T08:04:21;6.55;;;2.30;;
10269;SDS011;70826;50.930;5.334;2023-06-26T08:06:51;10.93;;;2.47;;
10269;SDS011;70826;50.930;5.334;2023-06-26T08:09:19;7.45;;;2.80;;
10269;SDS011;70826;50.930;5.334;2023-06-26T08:11:47;12.68;;;3.15;;
10269;SDS011;70826;50.930;5.334;2023-06-26T08:14:15;19.23;;;3.35;;
10269;SDS011;70826;50.930;5.334;2023-06-26T08:16:44;8.82;;;2.80;;
10269;SDS011;70826;50.930;5.334;2023-06-26T08:19:11;9.27;;;2.70;;
10269;SDS011;70826;50.930;5.334;2023-06-26T08:21:39;15.60;;;2.97;;
10269;SDS011;70826;50.930;5.334;2023-06-26T08:24:05;14.77;;;2.85;;
10269;SDS011;70826;50.930;5.334;2023-06-26T08:26:38;16.33;;;3.20;;
10269;SDS011;70826;50.930;5.334;2023-06-26T08:29:04;10.50;;;2.60;;
10269;SDS011;70826;50.930;5.334;2023-06-26T08:31:37;11.13;;;2.45;;
10269;SDS011;70826;50.930;5.334;2023-06-26T08:34:05;6.95;;;2.10;;
10269;SDS011;70826;50.930;5.334;2023-06-26T08:36:31;6.53;;;2.38;;
10269;SDS011;70826;50.930;5.334;2023-06-26T08:39:00;11.00;;;2.30;;
10269;SDS011;70826;50.930;5.334;2023-06-26T08:41:30;4.93;;;1.92;;
10269;SDS011;70826;50.930;5.334;2023-06-26T08:44:01;4.10;;;2.20;;
10269;SDS011;70826;50.930;5.334;2023-06-26T08:46:30;4.50;;;2.22;;
10269;SDS011;70826;50.930;5.334;2023-06-26T08:49:18;5.55;;;2.38;;
10269;SDS011;70826;50.930;5.334;2023-06-26T08:52:06;5.13;;;2.13;;
10269;SDS011;70826;50.930;5.334;2023-06-26T08:54:45;4.78;;;2.10;;
10269;SDS011;70826;50.930;5.334;2023-06-26T08:57:17;2.83;;;2.08;;
10269;SDS011;70826;50.930;5.334;2023-06-26T08:59:47;4.13;;;2.00;;
10269;SDS011;70826;50.930;5.334;2023-06-26T09:02:16;4.80;;;1.90;;
10269;SDS011;70826;50.930;5.334;2023-06-26T09:04:42;2.97;;;2.00;;
10269;SDS011;70826;50.930;5.334;2023-06-26T09:07:08;3.60;;;1.80;;
10269;SDS011;70826;50.930;5.334;2023-06-26T09:09:35;3.05;;;2.05;;
10269;SDS011;70826;50.930;5.334;2023-06-26T09:12:02;3.70;;;2.00;;
10269;SDS011;70826;50.930;5.334;2023-06-26T09:14:28;4.10;;;1.90;;
10269;SDS011;70826;50.930;5.334;2023-06-26T09:16:54;3.30;;;1.98;;
10269;SDS011;70826;50.930;5.334;2023-06-26T09:19:20;2.90;;;2.00;;
10269;SDS011;70826;50.930;5.334;2023-06-26T09:21:48;3.42;;;1.80;;
10269;SDS011;70826;50.930;5.334;2023-06-26T09:24:15;3.13;;;1.80;;
10269;SDS011;70826;50.930;5.334;2023-06-26T09:26:42;2.83;;;1.83;;
10269;SDS011;70826;50.930;5.334;2023-06-26T09:29:10;2.22;;;1.70;;
10269;SDS011;70826;50.930;5.334;2023-06-26T09:31:39;4.07;;;2.00;;
10269;SDS011;70826;50.930;5.334;2023-06-26T09:34:05;2.78;;;1.88;;
10269;SDS011;70826;50.930;5.334;2023-06-26T09:36:37;2.28;;;1.80;;
10269;SDS011;70826;50.930;5.334;2023-06-26T09:39:07;3.05;;;1.90;;
10269;SDS011;70826;50.930;5.334;2023-06-26T09:41:36;2.08;;;1.70;;
10269;SDS011;70826;50.930;5.334;2023-06-26T09:44:07;1.75;;;1.40;;
10269;SDS011;70826;50.930;5.334;2023-06-26T09:46:37;3.00;;;1.90;;
10269;SDS011;70826;50.930;5.334;2023-06-26T09:49:10;3.42;;;1.60;;
10269;SDS011;70826;50.930;5.334;2023-06-26T09:51:37;2.55;;;1.77;;
10269;SDS011;70826;50.930;5.334;2023-06-26T09:54:04;2.20;;;1.60;;
10269;SDS011;70826;50.930;5.334;2023-06-26T09:56:33;1.75;;;1.58;;
10269;SDS011;70826;50.930;5.334;2023-06-26T09:59:05;3.35;;;1.88;;
10269;SDS011;70826;50.930;5.334;2023-06-26T10:01:32;1.90;;;1.70;;
10269;SDS011;70826;50.930;5.334;2023-06-26T10:04:07;2.30;;;1.70;;
10269;SDS011;70826;50.930;5.334;2023-06-26T10:06:37;4.28;;;1.80;;
10269;SDS011;70826;50.930;5.334;2023-06-26T10:09:06;3.63;;;1.80;;
10269;SDS011;70826;50.930;5.334;2023-06-26T10:14:10;2.55;;;1.73;;
10269;SDS011;70826;50.930;5.334;2023-06-26T10:16:40;2.45;;;1.70;;
10269;SDS011;70826;50.930;5.334;2023-06-26T10:19:10;1.85;;;1.70;;
10269;SDS011;70826;50.930;5.334;2023-06-26T10:21:38;1.90;;;1.80;;
10269;SDS011;70826;50.930;5.334;2023-06-26T10:24:06;2.65;;;1.88;;
10269;SDS011;70826;50.930;5.334;2023-06-26T10:26:41;1.85;;;1.67;;
10269;SDS011;70826;50.930;5.334;2023-06-26T10:29:11;1.92;;;1.70;;
10269;SDS011;70826;50.930;5.334;2023-06-26T10:31:39;1.75;;;1.65;;
10269;SDS011;70826;50.930;5.334;2023-06-26T10:34:12;2.47;;;1.80;;
10269;SDS011;70826;50.930;5.334;2023-06-26T10:36:46;1.75;;;1.50;;
10269;SDS011;70826;50.930;5.334;2023-06-26T10:39:13;1.83;;;1.60;;
10269;SDS011;70826;50.930;5.334;2023-06-26T10:41:42;1.75;;;1.65;;
10269;SDS011;70826;50.930;5.334;2023-06-26T10:44:09;2.00;;;1.77;;
10269;SDS011;70826;50.930;5.334;2023-06-26T10:46:53;2.42;;;1.75;;
10269;SDS011;70826;50.930;5.334;2023-06-26T10:49:28;2.00;;;1.70;;
10269;SDS011;70826;50.930;5.334;2023-06-26T10:51:55;2.10;;;1.50;;
10269;SDS011;70826;50.930;5.334;2023-06-26T10:54:28;3.85;;;2.05;;
10269;SDS011;70826;50.930;5.334;2023-06-26T10:56:55;7.53;;;2.10;;
10269;SDS011;70826;50.930;5.334;2023-06-26T10:59:22;7.07;;;2.20;;
10269;SDS011;70826;50.930;5.334;2023-06-26T11:02:02;3.45;;;1.73;;
10269;SDS011;70826;50.930;5.334;2023-06-26T11:04:44;5.32;;;1.80;;
10269;SDS011;70826;50.930;5.334;2023-06-26T11:10:02;2.67;;;1.65;;
10269;SDS011;70826;50.930;5.334;2023-06-26T11:12:34;2.63;;;1.80;;
10269;SDS011;70826;50.930;5.334;2023-06-26T11:15:11;2.00;;;1.60;;
10269;SDS011;70826;50.930;5.334;2023-06-26T11:17:43;2.55;;;1.70;;
10269;SDS011;70826;50.930;5.334;2023-06-26T11:20:12;6.38;;;1.88;;
10269;SDS011;70826;50.930;5.334;2023-06-26T11:22:41;8.30;;;2.30;;
10269;SDS011;70826;50.930;5.334;2023-06-26T11:25:08;6.63;;;1.90;;
10269;SDS011;70826;50.930;5.334;2023-06-26T11:27:39;5.28;;;1.92;;
10269;SDS011;70826;50.930;5.334;2023-06-26T11:30:06;3.92;;;1.63;;
10269;SDS011;70826;50.930;5.334;2023-06-26T11:32:36;4.85;;;2.00;;
10269;SDS011;70826;50.930;5.334;2023-06-26T11:35:05;2.75;;;1.73;;
10269;SDS011;70826;50.930;5.334;2023-06-26T11:37:33;2.13;;;1.60;;
10269;SDS011;70826;50.930;5.334;2023-06-26T11:40:04;3.65;;;1.98;;
10269;SDS011;70826;50.930;5.334;2023-06-26T11:42:45;3.72;;;1.50;;
10269;SDS011;70826;50.930;5.334;2023-06-26T11:45:13;2.55;;;1.55;;
10269;SDS011;70826;50.930;5.334;2023-06-26T11:47:44;4.03;;;1.65;;
10269;SDS011;70826;50.930;5.334;2023-06-26T11:50:14;2.17;;;1.60;;
10269;SDS011;70826;50.930;5.334;2023-06-26T11:52:44;3.03;;;1.60;;
10269;SDS011;70826;50.930;5.334;2023-06-26T11:55:18;2.65;;;1.48;;
10269;SDS011;70826;50.930;5.334;2023-06-26T11:57:47;5.40;;;1.85;;
10269;SDS011;70826;50.930;5.334;2023-06-26T12:00:23;4.90;;;1.60;;
10269;SDS011;70826;50.930;5.334;2023-06-26T12:02:53;3.80;;;1.60;;
10269;SDS011;70826;50.930;5.334;2023-06-26T12:05:22;3.55;;;1.58;;
10269;SDS011;70826;50.930;5.334;2023-06-26T12:07:50;2.95;;;1.60;;
10269;SDS011;70826;50.930;5.334;2023-06-26T12:10:19;2.63;;;1.60;;
10269;SDS011;70826;50.930;5.334;2023-06-26T12:12:47;3.33;;;1.70;;
10269;SDS011;70826;50.930;5.334;2023-06-26T12:15:14;3.28;;;1.48;;
10269;SDS011;70826;50.930;5.334;2023-06-26T12:17:44;8.05;;;1.70;;
10269;SDS011;70826;50.930;5.334;2023-06-26T12:20:22;5.35;;;1.75;;
10269;SDS011;70826;50.930;5.334;2023-06-26T12:22:50;9.35;;;2.25;;
10269;SDS011;70826;50.930;5.334;2023-06-26T12:25:22;5.05;;;1.70;;
10269;SDS011;70826;50.930;5.334;2023-06-26T12:27:48;4.63;;;1.67;;
10269;SDS011;70826;50.930;5.334;2023-06-26T12:30:15;4.18;;;2.00;;
10269;SDS011;70826;50.930;5.334;2023-06-26T12:32:43;6.78;;;1.88;;
10269;SDS011;70826;50.930;5.334;2023-06-26T12:35:10;3.47;;;1.55;;
10269;SDS011;70826;50.930;5.334;2023-06-26T12:37:36;5.75;;;2.00;;
10269;SDS011;70826;50.930;5.334;2023-06-26T12:40:17;14.13;;;2.45;;
10269;SDS011;70826;50.930;5.334;2023-06-26T12:42:44;12.63;;;3.28;;
10269;SDS011;70826;50.930;5.334;2023-06-26T12:45:13;11.38;;;2.72;;
10269;SDS011;70826;50.930;5.334;2023-06-26T12:47:45;7.93;;;2.35;;
10269;SDS011;70826;50.930;5.334;2023-06-26T12:50:11;15.60;;;2.78;;
10269;SDS011;70826;50.930;5.334;2023-06-26T12:52:37;12.02;;;2.70;;
10269;SDS011;70826;50.930;5.334;2023-06-26T12:55:06;18.42;;;3.25;;
10269;SDS011;70826;50.930;5.334;2023-06-26T12:57:32;21.50;;;3.85;;
10269;SDS011;70826;50.930;5.334;2023-06-26T12:59:58;34.50;;;3.90;;
10269;SDS011;70826;50.930;5.334;2023-06-26T13:02:25;22.50;;;3.63;;
10269;SDS011;70826;50.930;5.334;2023-06-26T13:04:53;17.85;;;3.35;;
10269;SDS011;70826;50.930;5.334;2023-06-26T13:07:19;16.00;;;3.25;;
10269;SDS011;70826;50.930;5.334;2023-06-26T13:09:44;14.55;;;3.13;;
10269;SDS011;70826;50.930;5.334;2023-06-26T13:12:13;13.60;;;2.65;;
10269;SDS011;70826;50.930;5.334;2023-06-26T13:14:41;14.00;;;2.50;;
10269;SDS011;70826;50.930;5.334;2023-06-26T13:17:07;11.60;;;2.63;;
10269;SDS011;70826;50.930;5.334;2023-06-26T13:19:35;10.00;;;2.55;;
10269;SDS011;70826;50.930;5.334;2023-06-26T13:22:03;7.25;;;2.42;;
10269;SDS011;70826;50.930;5.334;2023-06-26T13:24:28;9.55;;;2.65;;
10269;SDS011;70826;50.930;5.334;2023-06-26T13:26:56;9.77;;;2.38;;
10269;SDS011;70826;50.930;5.334;2023-06-26T13:29:24;10.88;;;2.50;;
10269;SDS011;70826;50.930;5.334;2023-06-26T13:31:50;12.45;;;2.63;;
10269;SDS011;70826;50.930;5.334;2023-06-26T13:34:22;11.10;;;2.50;;
10269;SDS011;70826;50.930;5.334;2023-06-26T13:36:49;9.60;;;2.50;;
10269;SDS011;70826;50.930;5.334;2023-06-26T13:39:17;7.53;;;2.22;;
10269;SDS011;70826;50.930;5.334;2023-06-26T13:41:44;6.53;;;2.25;;
10269;SDS011;70826;50.930;5.334;2023-06-26T13:44:10;8.05;;;2.30;;
10269;SDS011;70826;50.930;5.334;2023-06-26T13:46:41;7.75;;;2.25;;
10269;SDS011;70826;50.930;5.334;2023-06-26T13:49:09;7.20;;;2.05;;
10269;SDS011;70826;50.930;5.334;2023-06-26T13:51:37;6.20;;;2.10;;
10269;SDS011;70826;50.930;5.334;2023-06-26T13:54:08;4.57;;;1.90;;
10269;SDS011;70826;50.930;5.334;2023-06-26T13:56:36;4.80;;;2.10;;
10269;SDS011;70826;50.930;5.334;2023-06-26T13:59:07;5.85;;;2.00;;
10269;SDS011;70826;50.930;5.334;2023-06-26T14:01:33;6.00;;;2.10;;
10269;SDS011;70826;50.930;5.334;2023-06-26T14:03:59;6.70;;;2.30;;
10269;SDS011;70826;50.930;5.334;2023-06-26T14:06:25;4.45;;;2.03;;
10269;SDS011;70826;50.930;5.334;2023-06-26T14:08:53;4.25;;;2.00;;
10269;SDS011;70826;50.930;5.334;2023-06-26T14:11:21;5.30;;;1.80;;
10269;SDS011;70826;50.930;5.334;2023-06-26T14:13:48;3.65;;;1.83;;
10269;SDS011;70826;50.930;5.334;2023-06-26T14:16:20;6.32;;;2.10;;
10269;SDS011;70826;50.930;5.334;2023-06-26T14:18:50;3.13;;;2.00;;
10269;SDS011;70826;50.930;5.334;2023-06-26T14:21:18;3.28;;;1.80;;
10269;SDS011;70826;50.930;5.334;2023-06-26T14:23:44;3.60;;;2.03;;
10269;SDS011;70826;50.930;5.334;2023-06-26T14:26:15;2.67;;;1.77;;
10269;SDS011;70826;50.930;5.334;2023-06-26T14:28:45;3.45;;;2.05;;
10269;SDS011;70826;50.930;5.334;2023-06-26T14:31:13;2.00;;;1.70;;
10269;SDS011;70826;50.930;5.334;2023-06-26T14:33:39;3.15;;;1.98;;
10269;SDS011;70826;50.930;5.334;2023-06-26T14:36:05;2.05;;;1.80;;
10269;SDS011;70826;50.930;5.334;2023-06-26T14:38:35;2.28;;;1.70;;
10269;SDS011;70826;50.930;5.334;2023-06-26T14:41:01;3.30;;;1.80;;
10269;SDS011;70826;50.930;5.334;2023-06-26T14:43:27;2.95;;;1.70;;
10269;SDS011;70826;50.930;5.334;2023-06-26T14:45:52;3.00;;;1.88;;
10269;SDS011;70826;50.930;5.334;2023-06-26T14:48:21;3.28;;;1.90;;
10269;SDS011;70826;50.930;5.334;2023-06-26T14:50:54;2.78;;;1.70;;
10269;SDS011;70826;50.930;5.334;2023-06-26T14:53:19;2.17;;;1.70;;
10269;SDS011;70826;50.930;5.334;2023-06-26T14:55:50;2.50;;;1.70;;
10269;SDS011;70826;50.930;5.334;2023-06-26T14:58:15;2.25;;;1.63;;
10269;SDS011;70826;50.930;5.334;2023-06-26T15:00:41;1.92;;;1.55;;
10269;SDS011;70826;50.930;5.334;2023-06-26T15:03:08;2.00;;;1.58;;
10269;SDS011;70826;50.930;5.334;2023-06-26T15:05:34;1.73;;;1.63;;